Time;durP1;ratioP1;P1;durP2;ratioP2;P2;SDS_P1;SDS_P2;PMS_P1;PMS_P2;Temp;Humidity;BMP_temperature;BMP_pressure;BME280_temperature;BME280_humidity;BME280_pressure;Samples;Min_cycle;Max_cycle;Signal;HPM_P1;HPM_P2
2022/11/08 00:02:00;;;;;;;12.75;8.48;;;;;;;10.24;100.00;98949.37;4368969;32;20059;-74
2022/11/08 00:04:27;;;;;;;13.43;7.80;;;;;;;10.09;100.00;98941.94;4368851;32;20109;-73
2022/11/08 00:15:09;;;;;;;17.27;7.60;;;;;;;10.43;100.00;98939.16;4369770;32;20057;-74
2022/11/08 00:17:36;;;;;;;12.20;7.57;;;;;;;10.27;100.00;98954.28;4393505;32;20180;-74
2022/11/08 00:20:04;;;;;;;19.05;7.70;;;;;;;10.26;100.00;98939.19;4400759;32;20072;-74
2022/11/08 00:22:30;;;;;;;12.32;7.15;;;;;;;9.84;100.00;98910.13;4402328;32;20039;-74
2022/11/08 00:24:57;;;;;;;18.23;8.25;;;;;;;10.30;100.00;98932.25;4402461;32;20027;-74
2022/11/08 00:27:25;;;;;;;12.55;6.85;;;;;;;9.99;100.00;98859.22;4368725;32;20051;-74
2022/11/08 00:29:51;;;;;;;16.45;7.93;;;;;;;10.38;100.00;98945.28;4367969;32;20105;-73
2022/11/08 00:32:23;;;;;;;13.38;7.57;;;;;;;10.28;100.00;98955.91;4369266;32;20060;-73
2022/11/08 00:34:50;;;;;;;16.95;7.00;;;;;;;10.26;100.00;98952.62;4369886;32;20051;-74
2022/11/08 00:37:19;;;;;;;14.52;7.10;;;;;;;10.27;100.00;98951.56;4369732;32;20247;-74
2022/11/08 00:39:46;;;;;;;14.40;6.45;;;;;;;10.26;100.00;98960.69;4367145;32;20176;-75
2022/11/08 00:42:12;;;;;;;13.35;6.70;;;;;;;10.17;100.00;98957.66;4369966;32;20371;-74
2022/11/08 00:44:39;;;;;;;12.25;6.72;;;;;;;9.86;100.00;98913.38;4369279;32;20028;-73
2022/11/08 00:47:05;;;;;;;14.15;6.93;;;;;;;10.32;100.00;98954.31;4370018;32;20376;-73
2022/11/08 00:49:31;;;;;;;14.35;7.50;;;;;;;10.01;100.00;98956.63;4340228;33;20073;-73
2022/11/08 00:51:58;;;;;;;12.70;6.28;;;;;;;9.90;100.00;98962.91;4338244;33;20111;-74
2022/11/08 00:54:25;;;;;;;11.98;6.87;;;;;;;10.08;100.00;98959.94;4339934;33;20062;-73
2022/11/08 00:56:51;;;;;;;12.43;6.70;;;;;;;9.86;100.00;98930.34;4339568;32;20052;-74
2022/11/08 00:59:18;;;;;;;15.23;6.20;;;;;;;10.00;100.00;98963.03;4364088;32;20035;-74
2022/11/08 01:01:45;;;;;;;11.43;6.40;;;;;;;9.90;100.00;98958.34;4369921;32;20065;-73
2022/11/08 01:04:14;;;;;;;14.98;7.45;;;;;;;9.93;100.00;98957.03;4368021;32;20035;-74
2022/11/08 01:06:41;;;;;;;12.13;7.12;;;;;;;9.76;100.00;98914.84;4369507;32;20487;-74
2022/11/08 01:09:08;;;;;;;13.73;7.03;;;;;;;9.99;100.00;98956.06;4354711;32;20050;-74
2022/11/08 01:11:35;;;;;;;14.85;6.72;;;;;;;10.21;100.00;98936.44;4354612;32;20076;-73
2022/11/08 01:14:01;;;;;;;12.48;7.37;;;;;;;10.04;100.00;98958.81;4353128;32;20044;-74
2022/11/08 01:16:31;;;;;;;14.65;6.82;;;;;;;10.07;100.00;98917.97;4339092;33;20473;-74
2022/11/08 01:18:58;;;;;;;16.70;7.57;;;;;;;10.18;100.00;98949.31;4339689;33;20335;-74
2022/11/08 01:21:25;;;;;;;18.25;6.18;;;;;;;9.81;100.00;98869.22;4357962;32;20036;-74
2022/11/08 01:23:53;;;;;;;12.30;6.20;;;;;;;10.16;100.00;98945.25;4368073;32;20043;-74
2022/11/08 01:26:25;;;;;;;12.73;6.68;;;;;;;10.22;100.00;98949.63;4368620;32;20065;-74
2022/11/08 01:28:52;;;;;;;13.62;7.20;;;;;;;9.99;100.00;98913.03;4369239;32;20053;-74
2022/11/08 01:31:21;;;;;;;14.38;7.35;;;;;;;10.03;100.00;98949.09;4367727;32;20062;-73
2022/11/08 01:33:48;;;;;;;15.90;7.35;;;;;;;10.37;100.00;98951.75;4368925;32;20035;-73
2022/11/08 01:36:17;;;;;;;16.10;6.35;;;;;;;10.36;100.00;98955.50;4322486;33;20045;-73
2022/11/08 01:38:43;;;;;;;10.38;6.18;;;;;;;10.24;100.00;98952.06;4324843;33;20444;-73
2022/11/08 01:41:14;;;;;;;16.83;7.47;;;;;;;9.98;100.00;98916.75;4324887;33;20394;-73
2022/11/08 01:43:48;;;;;;;19.95;7.10;;;;;;;9.91;100.00;98916.94;4338768;33;20486;-73
2022/11/08 01:46:17;;;;;;;17.60;7.15;;;;;;;10.05;100.00;98912.03;4337137;33;20060;-73
2022/11/08 01:49:08;;;;;;;12.80;6.75;;;;;;;10.36;100.00;98944.72;4349061;32;20464;-73
2022/11/08 01:51:40;;;;;;;11.27;6.43;;;;;;;10.32;100.00;98944.44;4351728;32;20443;-74
2022/11/08 01:54:10;;;;;;;17.70;7.47;;;;;;;9.96;100.00;98894.69;4353600;32;20043;-73
2022/11/08 01:56:38;;;;;;;13.10;6.20;;;;;;;9.86;100.00;98946.47;4352571;32;20035;-74
2022/11/08 01:59:07;;;;;;;13.68;6.55;;;;;;;9.48;100.00;98870.09;4351729;32;20434;-73
2022/11/08 02:01:35;;;;;;;15.95;6.80;;;;;;;10.12;100.00;98939.56;4351893;32;20372;-74
2022/11/08 02:04:02;;;;;;;11.82;7.47;;;;;;;9.87;100.00;98909.63;4352943;32;20036;-74
2022/11/08 02:06:32;;;;;;;12.80;6.95;;;;;;;10.06;100.00;98945.91;4357175;32;20046;-74
2022/11/08 02:09:02;;;;;;;13.98;6.85;;;;;;;9.97;100.00;98909.75;4378156;32;20073;-74
2022/11/08 02:11:29;;;;;;;11.85;6.68;;;;;;;10.06;100.00;98942.44;4365717;32;20032;-74
2022/11/08 02:13:56;;;;;;;16.50;7.10;;;;;;;9.35;100.00;98860.50;4368787;32;20035;-75
2022/11/08 02:16:23;;;;;;;13.68;6.87;;;;;;;10.10;100.00;98935.47;4383251;32;20094;-74
2022/11/08 02:18:49;;;;;;;15.10;7.37;;;;;;;9.65;100.00;98896.94;4382807;32;20027;-74
2022/11/08 02:21:27;;;;;;;15.30;7.95;;;;;;;9.72;100.00;98932.53;4380878;32;20051;-74
2022/11/08 02:23:57;;;;;;;13.50;7.62;;;;;;;9.88;100.00;98935.47;4382241;32;20068;-75
2022/11/08 02:26:30;;;;;;;12.80;7.70;;;;;;;9.93;100.00;98940.91;4368298;32;20078;-74
2022/11/08 02:28:57;;;;;;;12.43;7.43;;;;;;;9.82;100.00;98940.75;4374292;32;20032;-74
2022/11/08 02:31:23;;;;;;;11.75;6.50;;;;;;;9.90;100.00;98930.66;4328957;33;20092;-74
2022/11/08 02:33:50;;;;;;;18.92;7.32;;;;;;;9.73;100.00;98942.25;4323694;33;20130;-74
2022/11/08 02:36:20;;;;;;;14.75;7.40;;;;;;;9.85;100.00;98933.25;4327237;33;20365;-75
2022/11/08 02:38:56;;;;;;;17.67;7.37;;;;;;;9.89;100.00;98945.12;4338653;33;20185;-74
2022/11/08 02:41:23;;;;;;;15.98;7.72;;;;;;;9.64;100.00;98900.69;4312566;33;20103;-74
2022/11/08 02:43:49;;;;;;;13.32;7.43;;;;;;;9.60;100.00;98891.50;4294397;33;20074;-74
2022/11/08 02:46:15;;;;;;;19.17;7.20;;;;;;;9.83;100.00;98882.41;4294644;33;20059;-75
2022/11/08 02:48:42;;;;;;;15.60;7.10;;;;;;;10.07;100.00;98926.03;4294642;33;20042;-75
2022/11/08 02:51:08;;;;;;;22.30;7.85;;;;;;;9.93;100.00;98928.25;4294850;33;20387;-74
2022/11/08 02:53:34;;;;;;;13.80;6.60;;;;;;;9.96;100.00;98935.03;4293199;33;20071;-74
2022/11/08 02:56:01;;;;;;;21.40;8.48;;;;;;;9.78;100.00;98891.22;4293950;33;20107;-73
2022/11/08 02:58:28;;;;;;;16.95;7.62;;;;;;;10.09;100.00;98933.87;4293318;33;20033;-74
2022/11/08 03:00:54;;;;;;;17.90;7.93;;;;;;;9.92;100.00;98891.66;4278208;33;20102;-74
2022/11/08 03:03:27;;;;;;;28.83;8.27;;;;;;;9.61;100.00;98888.56;4277649;33;20067;-73
2022/11/08 03:06:00;;;;;;;16.27;7.97;;;;;;;9.77;100.00;98888.78;4280058;33;20045;-74
2022/11/08 03:08:26;;;;;;;14.50;7.28;;;;;;;9.96;100.00;98886.63;4292821;33;20422;-74
2022/11/08 03:10:53;;;;;;;17.15;7.93;;;;;;;9.93;100.00;98935.53;4323415;33;20072;-74
2022/11/08 03:13:19;;;;;;;16.65;8.50;;;;;;;9.84;100.00;98920.88;4348256;32;20024;-74
2022/11/08 03:15:46;;;;;;;17.50;7.62;;;;;;;10.09;100.00;98928.47;4337740;33;20398;-74
2022/11/08 03:18:12;;;;;;;15.85;7.72;;;;;;;10.09;100.00;98937.34;4345250;33;20144;-73
2022/11/08 03:20:39;;;;;;;17.50;8.15;;;;;;;9.73;100.00;98888.47;4352224;33;20427;-75
2022/11/08 03:23:06;;;;;;;21.05;7.45;;;;;;;9.79;100.00;98941.25;4344040;33;20032;-75
2022/11/08 03:25:32;;;;;;;15.82;7.37;;;;;;;9.80;100.00;98910.59;4338779;33;20028;-73
2022/11/08 03:28:03;;;;;;;11.82;7.18;;;;;;;10.07;100.00;98941.34;4350851;33;20028;-73
2022/11/08 03:30:30;;;;;;;16.33;7.97;;;;;;;9.69;100.00;98941.09;4352323;33;20502;-74
2022/11/08 03:32:56;;;;;;;19.00;7.90;;;;;;;9.91;100.00;98943.03;4353215;33;20036;-75
2022/11/08 03:35:23;;;;;;;15.02;8.73;;;;;;;9.88;100.00;98909.38;4352728;33;20057;-75
2022/11/08 03:37:54;;;;;;;24.48;9.07;;;;;;;9.98;100.00;98943.66;4349634;33;20040;-73
2022/11/08 03:40:21;;;;;;;15.33;7.50;;;;;;;9.79;100.00;98925.09;4352875;33;20449;-75
2022/11/08 03:42:47;;;;;;;12.43;7.10;;;;;;;9.59;100.00;98947.13;4360735;32;20057;-74
2022/11/08 03:45:15;;;;;;;14.32;8.20;;;;;;;9.52;100.00;98945.66;4367012;32;20186;-75
2022/11/08 03:47:43;;;;;;;14.25;7.90;;;;;;;9.50;100.00;98953.16;4365003;32;20386;-74
2022/11/08 03:50:11;;;;;;;18.45;8.32;;;;;;;9.51;100.00;98941.34;4361994;32;20059;-73
2022/11/08 03:52:41;;;;;;;18.35;8.60;;;;;;;9.50;100.00;98953.16;4364895;32;20055;-73
2022/11/08 03:55:09;;;;;;;19.55;8.43;;;;;;;9.76;100.00;98957.84;4366779;32;20031;-73
2022/11/08 03:57:36;;;;;;;14.50;8.13;;;;;;;9.50;100.00;98964.72;4365480;32;20032;-74
2022/11/08 04:00:04;;;;;;;18.75;9.00;;;;;;;9.33;100.00;98927.09;4367070;32;20133;-74
2022/11/08 04:02:38;;;;;;;14.93;8.32;;;;;;;8.73;100.00;98848.75;4351332;33;20073;-74
2022/11/08 04:05:06;;;;;;;17.77;8.27;;;;;;;9.56;100.00;98946.81;4352816;33;20039;-74
2022/11/08 04:07:33;;;;;;;15.15;8.35;;;;;;;9.43;100.00;98959.53;4351638;33;20101;-74
2022/11/08 04:10:00;;;;;;;16.35;8.05;;;;;;;9.56;100.00;98954.88;4353988;32;20174;-75
2022/11/08 04:15:15;;;;;;;16.95;8.70;;;;;;;9.43;100.00;98948.78;4338778;32;20225;-74
2022/11/08 04:23:14;;;;;;;17.42;8.35;;;;;;;9.31;100.00;98945.34;4369798;32;20079;-74
2022/11/08 04:25:41;;;;;;;16.12;8.52;;;;;;;9.37;100.00;98948.94;4370365;32;20130;-75
2022/11/08 04:28:08;;;;;;;18.73;8.48;;;;;;;9.23;100.00;98943.06;4369425;32;20084;-74
2022/11/08 04:30:36;;;;;;;14.23;8.45;;;;;;;8.93;100.00;98914.59;4369313;32;20054;-75
2022/11/08 04:33:03;;;;;;;18.00;9.07;;;;;;;9.12;100.00;98952.81;4376412;32;20016;-74
2022/11/08 04:35:30;;;;;;;18.33;9.13;;;;;;;9.14;100.00;98934.56;4402209;32;20055;-73
2022/11/08 04:37:59;;;;;;;17.15;9.23;;;;;;;8.81;100.00;98908.50;4384156;32;20027;-74
2022/11/08 04:40:27;;;;;;;18.27;9.65;;;;;;;8.79;100.00;98911.41;4384999;32;20054;-76
2022/11/08 04:42:53;;;;;;;17.73;8.77;;;;;;;9.00;100.00;98938.59;4384148;32;20106;-73
2022/11/08 04:45:19;;;;;;;21.85;10.27;;;;;;;8.93;100.00;98944.13;4367707;32;20137;-73
2022/11/08 04:47:46;;;;;;;17.73;8.43;;;;;;;8.88;100.00;98934.13;4340351;33;20049;-75
2022/11/08 04:50:13;;;;;;;15.98;10.02;;;;;;;8.61;100.00;98906.25;4337833;33;20087;-74
2022/11/08 04:52:40;;;;;;;17.05;9.90;;;;;;;8.76;100.00;98911.06;4339878;33;20036;-75
2022/11/08 04:55:08;;;;;;;16.83;8.35;;;;;;;8.80;100.00;98950.63;4337783;33;20411;-74
2022/11/08 04:57:34;;;;;;;22.10;9.55;;;;;;;8.64;100.00;98903.87;4340057;33;20995;-74
2022/11/08 05:00:01;;;;;;;23.05;9.95;;;;;;;8.73;100.00;98925.81;4338304;33;20469;-74
2022/11/08 05:02:27;;;;;;;20.02;9.68;;;;;;;8.81;100.00;98946.09;4339413;33;20020;-74
2022/11/08 05:04:53;;;;;;;15.55;8.40;;;;;;;8.44;100.00;98924.94;4337865;33;20048;-72
2022/11/08 05:07:20;;;;;;;19.10;9.73;;;;;;;8.34;100.00;98955.06;4337361;33;20024;-73
2022/11/08 05:09:46;;;;;;;19.30;9.60;;;;;;;8.46;100.00;98918.31;4352113;32;20075;-74
2022/11/08 05:12:13;;;;;;;17.60;9.60;;;;;;;8.30;100.00;98922.53;4354589;32;20481;-74
2022/11/08 05:14:39;;;;;;;16.65;8.73;;;;;;;8.65;100.00;98953.84;4324012;33;20059;-74
2022/11/08 05:17:05;;;;;;;19.20;9.38;;;;;;;8.52;100.00;98956.78;4335023;33;20040;-74
2022/11/08 05:25:15;;;;;;;19.45;9.50;;;;;;;8.44;100.00;98958.00;4345154;32;20051;-74
2022/11/08 05:27:42;;;;;;;21.10;11.12;;;;;;;8.28;100.00;98940.72;4369123;32;20173;-75
2022/11/08 05:30:09;;;;;;;22.70;9.43;;;;;;;8.32;100.00;98933.81;4368723;32;20051;-74
2022/11/08 05:32:35;;;;;;;17.40;10.45;;;;;;;8.47;100.00;98975.47;4367958;32;20036;-73
2022/11/08 05:35:02;;;;;;;20.40;10.73;;;;;;;8.44;100.00;98962.53;4367672;32;20032;-74
2022/11/08 05:37:28;;;;;;;18.60;9.90;;;;;;;8.34;100.00;98934.41;4368958;32;20024;-74
2022/11/08 05:39:54;;;;;;;19.08;9.75;;;;;;;8.30;100.00;98973.50;4362104;32;20056;-77
2022/11/08 05:42:21;;;;;;;18.95;10.80;;;;;;;8.14;100.00;98931.31;4322270;33;20199;-79
2022/11/08 05:44:47;;;;;;;18.80;9.73;;;;;;;7.95;100.00;98915.34;4302099;33;20075;-79
2022/11/08 05:47:13;;;;;;;17.75;9.25;;;;;;;8.10;100.00;98940.87;4339829;33;20091;-78
2022/11/08 05:49:40;;;;;;;15.55;9.30;;;;;;;8.47;100.00;98975.47;4339580;33;20053;-78
2022/11/08 05:52:06;;;;;;;21.77;10.68;;;;;;;8.49;100.00;98970.69;4337904;33;20058;-78
2022/11/08 05:54:33;;;;;;;21.33;11.00;;;;;;;7.93;100.00;98941.59;4324958;33;20182;-78
2022/11/08 05:56:59;;;;;;;21.73;9.68;;;;;;;7.99;100.00;98935.28;4322578;33;20406;-78
2022/11/08 05:59:26;;;;;;;42.67;11.80;;;;;;;8.02;100.00;98933.19;4324013;33;20212;-78
2022/11/08 06:01:52;;;;;;;18.75;10.38;;;;;;;8.39;100.00;98959.72;4324218;33;20037;-78
2022/11/08 06:04:19;;;;;;;21.15;10.98;;;;;;;8.11;100.00;98937.16;4320010;33;20040;-78
2022/11/08 06:06:48;;;;;;;21.52;9.20;;;;;;;8.43;100.00;98939.41;4307422;33;20055;-78
2022/11/08 06:09:15;;;;;;;32.78;9.70;;;;;;;8.54;100.00;98978.84;4307391;33;20036;-77
2022/11/08 06:11:41;;;;;;;17.50;8.52;;;;;;;8.30;100.00;98913.66;4295378;33;20429;-78
2022/11/08 06:14:08;;;;;;;19.15;10.02;;;;;;;8.68;100.00;98980.19;4293524;33;20387;-78
2022/11/08 06:16:34;;;;;;;17.08;8.82;;;;;;;8.45;100.00;98948.87;4321168;33;20074;-80
2022/11/08 06:19:01;;;;;;;27.87;14.60;;;;;;;8.51;100.00;98963.22;4323809;33;20415;-77
2022/11/08 06:21:27;;;;;;;38.92;21.27;;;;;;;8.60;100.00;98945.69;4307268;33;20024;-76
2022/11/08 06:23:54;;;;;;;33.75;21.25;;;;;;;8.60;100.00;98961.78;4309545;33;20471;-78
2022/11/08 06:26:22;;;;;;;33.38;21.02;;;;;;;8.49;100.00;98947.34;4271507;33;20097;-78
2022/11/08 06:28:49;;;;;;;37.28;21.20;;;;;;;8.41;100.00;98954.91;4265185;33;20041;-78
2022/11/08 06:31:15;;;;;;;33.80;18.67;;;;;;;8.50;100.00;98977.69;4277106;33;20128;-78
2022/11/08 06:33:42;;;;;;;29.15;14.98;;;;;;;8.52;100.00;98951.41;4280156;33;20424;-79
2022/11/08 06:36:08;;;;;;;25.95;13.20;;;;;;;8.56;100.00;98960.62;4277604;33;20057;-79
2022/11/08 06:38:35;;;;;;;20.20;10.85;;;;;;;8.69;100.00;98983.69;4280285;33;20050;-78
2022/11/08 06:41:01;;;;;;;19.10;10.60;;;;;;;8.18;100.00;98932.47;4279413;33;20067;-80
2022/11/08 06:43:28;;;;;;;21.42;11.50;;;;;;;8.35;100.00;98927.97;4278837;33;20405;-79
2022/11/08 06:45:58;;;;;;;19.73;11.07;;;;;;;8.57;100.00;98956.91;4251853;33;20176;-80
2022/11/08 06:48:25;;;;;;;22.40;9.75;;;;;;;8.49;100.00;98952.72;4251024;33;20038;-78
2022/11/08 06:50:51;;;;;;;17.98;10.75;;;;;;;8.53;100.00;98961.09;4261459;33;20052;-84
2022/11/08 06:53:18;;;;;;;21.83;10.57;;;;;;;8.59;100.00;99003.09;4252149;33;20060;-83
2022/11/08 06:55:44;;;;;;;18.73;8.50;;;;;;;8.51;100.00;98965.91;4250798;33;21006;-83
2022/11/08 06:58:11;;;;;;;17.80;8.93;;;;;;;8.31;100.00;98905.38;4284234;33;20067;-88
2022/11/08 07:00:37;;;;;;;22.10;9.77;;;;;;;9.20;100.00;98991.91;4293063;33;20033;-86
2022/11/08 07:03:04;;;;;;;20.62;9.68;;;;;;;8.90;100.00;98948.13;4294492;33;20427;-83
2022/11/08 07:05:33;;;;;;;22.27;9.55;;;;;;;9.17;100.00;98976.25;4292129;33;20063;-86
2022/11/08 07:08:00;;;;;;;22.98;10.00;;;;;;;8.85;100.00;98947.22;4302995;33;20066;-81
2022/11/08 07:10:29;;;;;;;19.83;9.38;;;;;;;8.81;100.00;98946.88;4306370;33;20029;-83
2022/11/08 07:13:09;;;;;;;21.83;9.65;;;;;;;9.17;100.00;98987.81;4293892;33;20065;-85
2022/11/08 07:15:37;;;;;;;22.60;10.35;;;;;;;9.41;100.00;98988.50;4293930;33;20176;-87
2022/11/08 07:18:06;;;;;;;16.00;8.82;;;;;;;9.14;100.00;98958.75;4316555;33;20115;-85
2022/11/08 07:20:32;;;;;;;15.80;9.15;;;;;;;9.36;100.00;98988.41;4327655;33;20028;-82
2022/11/08 07:22:59;;;;;;;23.15;9.55;;;;;;;9.13;100.00;98937.53;4301777;33;20056;-81
2022/11/08 07:25:27;;;;;;;26.00;10.00;;;;;;;8.98;100.00;98954.97;4254588;33;20049;-82
2022/11/08 07:27:58;;;;;;;18.90;8.98;;;;;;;9.03;100.00;98917.47;4242504;33;20463;-83
2022/11/08 07:30:25;;;;;;;18.77;9.48;;;;;;;9.47;100.00;98956.34;4255124;33;20409;-83
2022/11/08 07:32:54;;;;;;;17.27;8.77;;;;;;;9.77;100.00;98990.97;4255553;33;20071;-82
2022/11/08 07:35:21;;;;;;;15.38;9.02;;;;;;;9.11;100.00;98910.06;4252914;33;20056;-81
2022/11/08 07:37:47;;;;;;;20.95;8.07;;;;;;;9.70;100.00;98992.97;4257318;33;20066;-84
2022/11/08 07:40:14;;;;;;;16.20;8.93;;;;;;;9.47;100.00;98980.53;4253051;33;20098;-85
2022/11/08 07:42:41;;;;;;;23.35;9.73;;;;;;;9.71;100.00;99003.50;4245248;33;20052;-88
2022/11/08 07:45:09;;;;;;;24.58;8.52;;;;;;;9.86;100.00;99000.25;4237401;33;20116;-84
2022/11/08 07:47:36;;;;;;;17.20;8.85;;;;;;;9.57;100.00;99010.25;4241216;33;20349;-83
2022/11/08 07:50:03;;;;;;;17.37;9.25;;;;;;;9.39;100.00;98969.09;4253092;33;20078;-84
2022/11/08 07:52:30;;;;;;;19.30;9.27;;;;;;;9.98;100.00;99006.34;4253388;33;20060;-84
2022/11/08 07:54:56;;;;;;;21.73;8.95;;;;;;;9.74;100.00;98969.94;4257866;33;20238;-83
2022/11/08 07:57:23;;;;;;;24.42;9.07;;;;;;;9.61;100.00;98973.78;4275998;33;20047;-85
2022/11/08 07:59:50;;;;;;;28.27;9.40;;;;;;;9.83;100.00;98976.53;4281497;33;20049;-82
2022/11/08 08:02:16;;;;;;;16.67;7.82;;;;;;;10.04;100.00;98985.72;4303281;33;20437;-85
2022/11/08 08:04:43;;;;;;;15.75;9.10;;;;;;;9.22;100.00;98885.84;4304059;33;20107;-84
2022/11/08 08:07:11;;;;;;;22.90;8.93;;;;;;;10.06;100.00;98972.81;4287713;33;20394;-82
2022/11/08 08:09:37;;;;;;;17.30;8.63;;;;;;;10.17;100.00;98963.81;4274093;33;20419;-80
2022/11/08 08:12:04;;;;;;;14.77;7.80;;;;;;;10.40;100.00;98966.56;4280750;33;20088;-81
2022/11/08 08:14:30;;;;;;;18.48;8.35;;;;;;;10.19;100.00;98963.56;4282865;33;20061;-81
2022/11/08 08:16:57;;;;;;;23.35;8.00;;;;;;;10.09;100.00;98961.56;4272197;33;20401;-81
2022/11/08 08:19:24;;;;;;;19.55;7.62;;;;;;;10.53;100.00;99002.03;4273780;33;20082;-81
2022/11/08 08:21:50;;;;;;;18.77;8.27;;;;;;;10.20;100.00;98964.41;4271805;33;20430;-81
2022/11/08 08:24:17;;;;;;;16.05;7.15;;;;;;;10.58;100.00;98968.12;4275126;33;20038;-80
2022/11/08 08:26:44;;;;;;;16.60;7.85;;;;;;;10.46;100.00;98960.19;4295909;33;20049;-81
2022/11/08 08:29:10;;;;;;;18.25;8.15;;;;;;;10.76;100.00;98958.94;4298020;33;20436;-81
2022/11/08 08:31:36;;;;;;;17.33;8.02;;;;;;;10.52;100.00;98969.97;4294282;33;20024;-81
2022/11/08 08:34:03;;;;;;;19.80;8.20;;;;;;;11.02;100.00;98995.03;4300453;33;20041;-80
2022/11/08 08:36:30;;;;;;;19.70;9.20;;;;;;;10.94;100.00;98952.38;4302875;33;20053;-81
2022/11/08 08:38:56;;;;;;;20.95;9.35;;;;;;;11.20;100.00;98992.00;4266076;33;20437;-83
2022/11/08 08:41:23;;;;;;;26.12;6.85;;;;;;;10.86;100.00;98959.84;4224082;33;20084;-81
2022/11/08 08:43:49;;;;;;;14.07;6.93;;;;;;;11.22;100.00;98968.28;4234144;33;20054;-78
2022/11/08 08:46:15;;;;;;;17.50;7.35;;;;;;;11.10;100.00;98970.31;4231551;33;20122;-80
2022/11/08 08:48:42;;;;;;;13.48;6.47;;;;;;;11.49;100.00;99005.19;4256446;33;20181;-81
2022/11/08 08:51:09;;;;;;;17.75;7.00;;;;;;;11.78;100.00;98996.81;4257958;33;20062;-78
2022/11/08 08:53:35;;;;;;;12.18;6.53;;;;;;;11.80;100.00;98994.66;4259095;33;20034;-78
2022/11/08 08:56:05;;;;;;;15.43;6.70;;;;;;;11.90;100.00;98989.34;4237386;33;20050;-78
2022/11/08 08:58:32;;;;;;;17.00;6.78;;;;;;;11.77;100.00;98946.59;4236055;33;20050;-79
2022/11/08 09:01:00;;;;;;;21.02;7.60;;;;;;;12.24;100.00;98988.19;4263311;33;20103;-79
2022/11/08 09:03:27;;;;;;;16.67;6.55;;;;;;;12.19;100.00;98997.09;4262701;33;20486;-79
2022/11/08 09:05:56;;;;;;;11.85;7.05;;;;;;;12.33;100.00;98982.06;4252747;33;20127;-79
2022/11/08 09:08:23;;;;;;;11.48;6.53;;;;;;;12.56;100.00;98998.91;4249691;33;20060;-78
2022/11/08 09:10:59;;;;;;;12.23;6.10;;;;;;;12.60;100.00;98994.59;4251482;33;20090;-77
2022/11/08 09:13:26;;;;;;;25.25;7.30;;;;;;;12.65;100.00;98994.63;4278653;33;20033;-78
2022/11/08 09:15:54;;;;;;;19.95;8.50;;;;;;;12.75;100.00;98980.34;4280751;33;20592;-78
2022/11/08 09:18:21;;;;;;;15.88;7.37;;;;;;;12.69;100.00;98990.31;4276614;33;20045;-77
2022/11/08 09:20:47;;;;;;;17.95;7.12;;;;;;;12.48;100.00;98989.41;4279796;33;20076;-78
2022/11/08 09:23:18;;;;;;;13.43;7.03;;;;;;;12.72;100.00;98972.78;4285276;33;20067;-78
2022/11/08 09:25:44;;;;;;;26.48;7.25;;;;;;;12.41;100.00;98917.81;4307788;33;20102;-80
2022/11/08 09:28:11;;;;;;;11.77;6.87;;;;;;;12.42;100.00;98981.56;4285554;33;20034;-80
2022/11/08 09:30:37;;;;;;;12.77;6.65;;;;;;;12.95;100.00;98987.69;4278801;33;20056;-81
2022/11/08 09:33:04;;;;;;;20.27;9.00;;;;;;;12.69;100.00;98922.78;4289176;33;21078;-80
2022/11/08 09:35:30;;;;;;;11.57;5.93;;;;;;;12.74;100.00;98986.03;4297457;33;20189;-78
2022/11/08 09:37:57;;;;;;;10.95;7.18;;;;;;;12.81;100.00;98986.56;4322345;33;20078;-80
2022/11/08 09:40:37;;;;;;;13.40;6.03;;;;;;;13.01;100.00;98985.81;4321233;33;20145;-79
2022/11/08 09:43:54;;;;;;;9.38;7.12;;;;;;;13.13;100.00;98982.88;4303420;33;20092;-78
2022/11/08 09:46:33;;;;;;;11.65;5.85;;;;;;;12.91;100.00;98954.19;4287305;33;20083;-78
2022/11/08 09:49:02;;;;;;;15.65;5.82;;;;;;;12.86;100.00;98956.84;4290056;33;20077;-78
2022/11/08 09:51:30;;;;;;;12.85;6.97;;;;;;;12.89;100.00;98980.66;4296147;33;20131;-78
2022/11/08 09:54:05;;;;;;;11.38;6.53;;;;;;;13.17;100.00;98984.78;4293490;33;20871;-80
2022/11/08 09:56:37;;;;;;;13.60;6.35;;;;;;;12.87;100.00;98920.66;4300980;33;20071;-75
2022/11/08 09:59:31;;;;;;;9.15;5.45;;;;;;;13.27;100.00;98973.16;4293310;33;20154;-74
2022/11/08 10:01:58;;;;;;;8.80;6.07;;;;;;;13.42;100.00;98980.53;4320140;33;20063;-75
2022/11/08 10:04:27;;;;;;;12.55;5.60;;;;;;;13.19;100.00;98943.94;4307389;33;20041;-76
2022/11/08 10:07:19;;;;;;;10.98;5.70;;;;;;;13.23;100.00;98945.06;4287188;33;20418;-76
2022/11/08 10:10:23;;;;;;;11.90;5.10;;;;;;;13.57;100.00;98982.41;4291479;33;20045;-75
2022/11/08 10:13:25;;;;;;;8.48;5.68;;;;;;;13.49;100.00;98974.84;4291578;33;20080;-76
2022/11/08 10:16:09;;;;;;;10.40;6.20;;;;;;;13.49;100.00;98974.84;4302588;33;20070;-75
2022/11/08 10:18:53;;;;;;;8.98;5.97;;;;;;;13.42;100.00;98973.22;4330252;33;20091;-74
2022/11/08 10:21:35;;;;;;;15.48;6.25;;;;;;;13.81;100.00;98972.66;4328666;33;20197;-75
2022/11/08 10:24:13;;;;;;;12.73;5.62;;;;;;;13.67;100.00;98960.75;4321783;33;20072;-74
2022/11/08 10:26:44;;;;;;;15.85;5.15;;;;;;;13.49;100.00;98974.84;4322421;33;20078;-74
2022/11/08 10:29:16;;;;;;;13.25;5.35;;;;;;;13.49;100.00;98937.78;4334659;33;20044;-74
2022/11/08 10:31:46;;;;;;;12.13;5.40;;;;;;;13.75;100.00;98952.13;4334590;33;20125;-75
2022/11/08 10:34:21;;;;;;;11.80;6.25;;;;;;;13.87;100.00;98969.97;4336282;33;20091;-75
2022/11/08 10:36:53;;;;;;;10.40;5.68;;;;;;;13.77;100.00;98966.16;4336113;33;20102;-75
2022/11/08 10:39:27;;;;;;;9.82;5.47;;;;;;;14.05;100.00;98955.84;4364377;32;20093;-75
2022/11/08 10:42:08;;;;;;;7.07;4.35;;;;;;;14.20;100.00;98952.28;4365716;32;20103;-75
2022/11/08 10:44:35;;;;;;;9.30;5.07;;;;;;;13.38;100.00;98926.13;4360216;32;20059;-75
2022/11/08 10:47:06;;;;;;;11.18;5.40;;;;;;;13.72;100.00;98947.25;4336196;32;20143;-75
2022/11/08 10:49:42;;;;;;;8.88;5.25;;;;;;;14.03;100.00;98943.66;4338527;32;20431;-75
2022/11/08 10:52:52;;;;;;;14.52;5.35;;;;;;;14.17;100.00;98959.06;4338231;32;20061;-75
2022/11/08 10:55:26;;;;;;;11.75;4.12;;;;;;;14.62;100.00;98942.13;4332458;32;20508;-75
2022/11/08 10:57:53;;;;;;;7.05;3.97;;;;;;;14.79;100.00;98956.16;4368228;32;20221;-76
2022/11/08 11:00:19;;;;;;;9.70;4.05;;;;;;;14.43;100.00;98960.88;4362318;32;20089;-75
2022/11/08 11:02:51;;;;;;;6.03;3.47;;;;;;;15.14;100.00;98962.44;4367449;32;20058;-76
2022/11/08 11:05:32;;;;;;;6.18;3.47;;;;;;;14.91;100.00;98960.41;4367487;32;20047;-75
2022/11/08 11:08:03;;;;;;;7.87;3.78;;;;;;;15.05;100.00;98951.38;4364816;32;20443;-75
2022/11/08 11:10:39;;;;;;;5.50;4.07;;;;;;;14.83;100.00;98905.69;4330834;33;20052;-75
2022/11/08 11:13:26;;;;;;;7.75;3.80;;;;;;;15.34;100.00;98947.13;4331549;32;20103;-74
2022/11/08 11:16:04;;;;;;;8.55;4.12;;;;;;;15.05;100.00;98945.16;4333735;32;20084;-74
2022/11/08 11:18:34;;;;;;;11.10;4.12;;;;;;;14.95;100.00;98939.78;4454794;27;20201;-73
2022/11/08 11:21:08;;;;;;;5.93;3.60;;;;;;;15.55;100.00;98937.69;4362137;32;20039;-75
2022/11/08 11:23:42;;;;;;;6.28;3.83;;;;;;;15.66;100.00;98905.84;4364654;32;20085;-73
2022/11/08 11:26:27;;;;;;;5.87;2.95;;;;;;;15.49;100.00;98900.84;4365832;32;20133;-75
2022/11/08 11:29:05;;;;;;;4.60;3.20;;;;;;;16.77;100.00;98944.81;4365546;32;20399;-75
2022/11/08 11:31:35;;;;;;;5.93;3.33;;;;;;;16.53;100.00;98942.16;4364785;32;20032;-74
2022/11/08 11:34:16;;;;;;;5.55;3.12;;;;;;;16.65;100.00;98915.34;4322128;33;20146;-75
2022/11/08 11:37:04;;;;;;;;;;;;;;;16.48;100.00;98950.34;4319037;33;20103;-75
2022/11/08 11:39:33;;;;;;;;;;;;;;;16.43;100.00;98939.53;4314510;33;20049;-75
2022/11/08 11:42:03;;;;;;;;;;;;;;;16.03;100.00;98957.94;4320152;33;20393;-75
2022/11/08 11:44:32;;;;;;;;;;;;;;;15.25;100.00;98950.44;4320421;33;19935;-76
2022/11/08 11:47:01;;;;;;;;;;;;;;;15.48;100.00;98942.66;4319525;33;19936;-75
2022/11/08 11:49:29;;;;;;;;;;;;;;;15.60;100.00;98940.41;4319388;33;19990;-75
2022/11/08 11:51:56;;;;;;;;;;;;;;;15.72;100.00;98936.50;4323266;33;19970;-75
2022/11/08 11:54:32;;;;;;;;;;;;;;;15.50;100.00;98939.66;4323077;33;19940;-74
2022/11/08 11:57:14;;;;;;;;;;;;;;;15.84;100.00;98938.84;4321467;33;19944;-73